Flight Track Log - Related Links

Times and Time Zones

All times are in EDT time to prevent confusion due to time zone crossing. See the UAL4422 flight status page for this flight to view local times or setup timezone preferences in your user account.

Time Position Orientation Groundspeed Altitude Reporting Facility
EDT Latitude Longitude Course Direction KTS MPH feet Rate Location/Type
Fri 05:38:08 PM 29.9814 -95.3533 276° West 173 199 700  Level Houston Center
Fri 05:38:47 PM 29.9925 -95.3808 295° West 176 203 2,000 2,040 Climbing Houston Center
Fri 05:39:48 PM 29.9886 -95.4536 266° West 241 277 4,100 2,000 Climbing Houston Center
Fri 05:40:14 PM 29.9917 -95.4792 278° West 229 264 4,900 2,656 Climbing Houston Center
Fri 05:40:49 PM 29.9981 -95.5344 278° West 244 281 6,800 2,419 Climbing Houston Center
Fri 05:41:00 PM 30.0278 -95.7498 277° West  Level FlightAware Approximate
Fri 05:41:16 PM 30.0022 -95.5567 282° West 248 285 7,400  Level Houston Center
Fri 05:41:51 PM 30.0097 -95.6175 278° West 261 300 9,400 2,516 Climbing Houston Center
Fri 05:42:00 PM 30.0379 -95.8544 276° West  Level FlightAware Approximate
Fri 05:42:18 PM 30.0144 -95.6383 285° West 257 296 10,000  Level Houston Center
Fri 05:43:00 PM 30.0466 -95.9593 276° West  Level FlightAware Approximate
Fri 05:43:20 PM 30.0297 -95.7481 279° West 292 336 11,200  Level Houston Center
Fri 05:44:22 PM 30.0433 -95.8486 279° West 317 365 12,700 1,355 Climbing Houston Center
Fri 05:45:24 PM 30.0586 -95.9519 280° West 325 374 14,000 1,306 Climbing Houston Center
Fri 05:46:26 PM 30.0739 -96.0653 279° West 334 384 15,400 1,355 Climbing Houston Center
Fri 05:47:28 PM 30.0883 -96.1706 279° West 333 383 16,800 1,152 Climbing Houston Center
Fri 05:48:31 PM 30.1039 -96.2750 280° West 333 383 17,800 1,056 Climbing Houston Center
Fri 05:49:33 PM 30.1194 -96.3822 280° West 338 389 19,000 1,258 Climbing Houston Center
Fri 05:50:35 PM 30.1383 -96.5003 281° West 341 392 20,400 1,258 Climbing Houston Center
Fri 05:51:37 PM 30.1547 -96.6117 280° West 346 398 21,600 1,210 Climbing Houston Center
Fri 05:52:39 PM 30.1711 -96.7231 280° West 347 399 22,900 1,161 Climbing Houston Center
Fri 05:53:41 PM 30.1900 -96.8497 280° West 343 395 24,000 968 Climbing Houston Center
Fri 05:54:43 PM 30.2225 -96.9583 289° West 353 406 24,900 1,113 Climbing Houston Center
Fri 05:55:45 PM 30.2600 -97.0631 293° West 348 400 26,300 1,355 Climbing Houston Center
Fri 05:56:47 PM 30.2969 -97.1625 293° West 336 387 27,700 1,056 Climbing Houston Center
Fri 05:57:50 PM 30.3331 -97.2611 293° West 331 381 28,500 1,056 Climbing Houston Center
Fri 05:58:52 PM 30.3681 -97.3569 293° West 321 369 29,900 1,306 Climbing Houston Center
Fri 05:59:54 PM 30.4014 -97.4522 292° West 315 362 31,200 1,016 Climbing Houston Center
Fri 06:00:56 PM 30.4367 -97.5467 293° West 316 364 32,000 387 Climbing Houston Center
Fri 06:01:58 PM 30.4800 -97.6675 293° West 345 397 32,000  Level Houston Center
Fri 06:03:00 PM 30.5192 -97.7753 293° West 356 410 32,000  Level Houston Center
Fri 06:04:02 PM 30.5594 -97.8842 293° West 361 415 32,000  Level Houston Center
Fri 06:05:04 PM 30.5958 -97.9906 292° West 353 406 32,000  Level Houston Center
Fri 06:06:07 PM 30.6347 -98.0975 293° West 352 405 32,000  Level Houston Center
Fri 06:07:09 PM 30.6719 -98.2028 292° West 350 403 32,000  Level Houston Center
Fri 06:08:11 PM 30.7097 -98.3094 292° West 352 405 32,000  Level Houston Center
Fri 06:09:13 PM 30.7547 -98.4333 293° West 353 406 32,000  Level Houston Center
Fri 06:10:15 PM 30.7919 -98.5411 292° West 356 410 32,000  Level Houston Center
Fri 06:11:17 PM 30.8300 -98.6500 292° West 359 413 32,000  Level Houston Center
Fri 06:12:19 PM 30.8672 -98.7583 292° West 358 412 32,000  Level Houston Center
Fri 06:13:21 PM 30.9072 -98.8686 293° West 364 419 32,000  Level Houston Center
Fri 06:14:23 PM 30.9464 -98.9797 292° West 367 422 32,000  Level Houston Center
Fri 06:15:26 PM 30.9847 -99.0925 292° West 370 426 32,000  Level Houston Center
Fri 06:16:28 PM 31.0231 -99.2014 292° West 371 427 32,000  Level Houston Center
Fri 06:17:30 PM 31.0700 -99.3361 292° West 374 430 32,000  Level Houston Center
Fri 06:18:32 PM 31.1069 -99.4472 291° West 371 427 32,000  Level Houston Center
Fri 06:19:34 PM 31.1453 -99.5592 292° West 371 427 32,000  Level Houston Center
Fri 06:20:36 PM 31.1842 -99.6717 292° West 373 429 32,000  Level Houston Center
Fri 06:21:38 PM 31.2228 -99.7864 292° West 378 435 32,000  Level Houston Center
Fri 06:22:40 PM 31.2703 -99.9239 292° West 381 438 32,000  Level Houston Center
Fri 06:23:42 PM 31.3094 -100.0397 292° West 382 440 32,000  Level Houston Center
Fri 06:24:45 PM 31.3489 -100.1564 292° West 385 443 32,000  Level Houston Center
Fri 06:25:47 PM 31.3878 -100.2756 291° West 393 452 32,000  Level Houston Center
Fri 06:26:03 PM 31.4050 -100.3267 292° West 388 447 32,000  Level Fort Worth Center
Fri 06:27:03 PM 31.4419 -100.4422 291° West 388 447 32,000 -500 Level Fort Worth Center
Fri 06:28:03 PM 31.4831 -100.5556 293° West 388 447 31,000 -1,200 Descending Fort Worth Center
Fri 06:29:03 PM 31.5158 -100.6592 290° West 388 447 29,600 -1,500 Descending Fort Worth Center
Fri 06:30:03 PM 31.5544 -100.7775 291° West 388 447 28,000 -1,900 Descending Fort Worth Center
Fri 06:31:03 PM 31.5969 -100.9011 292° West 393 452 25,800 -2,250 Descending Fort Worth Center
Fri 06:32:03 PM 31.6372 -101.0269 291° West 400 460 23,500 -2,231 Descending Fort Worth Center
Fri 06:33:04 PM 31.6756 -101.1456 291° West 400 460 21,300 -2,200 Descending Fort Worth Center
Fri 06:34:03 PM 31.7136 -101.2667 290° West 400 460 19,100 -2,118 Descending Fort Worth Center
Fri 06:35:03 PM 31.7539 -101.3883 291° West 395 455 17,100 -2,150 Descending Fort Worth Center
Fri 06:36:03 PM 31.7625 -101.5058 275° West 366 421 14,800 -2,250 Descending Fort Worth Center
Fri 06:37:03 PM 31.7775 -101.6189 279° West 373 429 12,600 -1,900 Descending Fort Worth Center
Fri 06:38:03 PM 31.7969 -101.7225 282° West 359 413 11,000 -1,450 Descending Fort Worth Center
Fri 06:39:03 PM 31.8361 -101.8025 300° West 315 362 9,700 -1,400 Descending Fort Worth Center
Fri 06:40:03 PM 31.8753 -101.8753 302° West 281 323 8,200 -1,500 Descending Fort Worth Center
Fri 06:41:03 PM 31.9122 -101.9456 302° West 260 299 6,700 -1,100 Descending Fort Worth Center
Fri 06:42:03 PM 31.9558 -102.0089 309° West 255 293 6,000 -650 Descending Fort Worth Center
Fri 06:43:03 PM 32.0081 -102.0656 317° Northwest 255 293 5,400 -550 Descending Fort Worth Center
Fri 06:44:03 PM 32.0561 -102.1194 316° Northwest 250 288 4,900 -500 Descending Fort Worth Center

Login

Don't have an account? Register now (free) for customized features, flight alerts, and more!